sensor_id;sensor_type;location;lat;lon;timestamp;temperature;humidity
51908;DHT22;39320;53.214;6.556;2023-06-14T00:00:59;21.50;64.00
51908;DHT22;39320;53.214;6.556;2023-06-14T00:03:24;21.50;64.20
51908;DHT22;39320;53.214;6.556;2023-06-14T00:05:51;21.40;64.40
51908;DHT22;39320;53.214;6.556;2023-06-14T00:08:17;21.50;64.60
51908;DHT22;39320;53.214;6.556;2023-06-14T00:10:44;21.40;64.50
51908;DHT22;39320;53.214;6.556;2023-06-14T00:13:10;21.40;64.60
51908;DHT22;39320;53.214;6.556;2023-06-14T00:15:36;21.40;64.90
51908;DHT22;39320;53.214;6.556;2023-06-14T00:18:03;21.40;65.40
51908;DHT22;39320;53.214;6.556;2023-06-14T00:20:31;21.40;65.30
51908;DHT22;39320;53.214;6.556;2023-06-14T00:22:59;21.30;65.60
51908;DHT22;39320;53.214;6.556;2023-06-14T00:25:25;21.30;65.60
51908;DHT22;39320;53.214;6.556;2023-06-14T00:27:52;21.30;66.00
51908;DHT22;39320;53.214;6.556;2023-06-14T00:30:18;21.20;66.10
51908;DHT22;39320;53.214;6.556;2023-06-14T00:32:44;21.20;66.20
51908;DHT22;39320;53.214;6.556;2023-06-14T00:35:11;21.10;66.50
51908;DHT22;39320;53.214;6.556;2023-06-14T00:37:37;21.10;66.80
51908;DHT22;39320;53.214;6.556;2023-06-14T00:40:04;21.10;67.20
51908;DHT22;39320;53.214;6.556;2023-06-14T00:42:30;21.10;67.50
51908;DHT22;39320;53.214;6.556;2023-06-14T00:44:56;21.10;67.70
51908;DHT22;39320;53.214;6.556;2023-06-14T00:47:22;21.00;67.60
51908;DHT22;39320;53.214;6.556;2023-06-14T00:49:49;21.00;67.80
51908;DHT22;39320;53.214;6.556;2023-06-14T00:52:19;21.00;68.10
51908;DHT22;39320;53.214;6.556;2023-06-14T00:54:45;20.90;68.10
51908;DHT22;39320;53.214;6.556;2023-06-14T00:57:11;20.90;68.30
51908;DHT22;39320;53.214;6.556;2023-06-14T00:59:55;20.80;68.40
51908;DHT22;39320;53.214;6.556;2023-06-14T01:02:21;20.80;68.80
51908;DHT22;39320;53.214;6.556;2023-06-14T01:04:49;20.70;69.00
51908;DHT22;39320;53.214;6.556;2023-06-14T01:07:46;20.70;69.40
51908;DHT22;39320;53.214;6.556;2023-06-14T01:13:29;20.70;70.40
51908;DHT22;39320;53.214;6.556;2023-06-14T01:15:59;20.70;70.60
51908;DHT22;39320;53.214;6.556;2023-06-14T01:18:24;20.70;70.50
51908;DHT22;39320;53.214;6.556;2023-06-14T01:20:51;20.70;70.50
51908;DHT22;39320;53.214;6.556;2023-06-14T01:23:21;20.70;70.50
51908;DHT22;39320;53.214;6.556;2023-06-14T01:25:48;20.60;70.50
51908;DHT22;39320;53.214;6.556;2023-06-14T01:28:21;20.60;71.00
51908;DHT22;39320;53.214;6.556;2023-06-14T01:30:50;20.60;71.20
51908;DHT22;39320;53.214;6.556;2023-06-14T01:33:26;20.60;71.60
51908;DHT22;39320;53.214;6.556;2023-06-14T01:35:53;20.50;71.60
51908;DHT22;39320;53.214;6.556;2023-06-14T01:38:22;20.50;71.90
51908;DHT22;39320;53.214;6.556;2023-06-14T01:40:50;20.50;72.50
51908;DHT22;39320;53.214;6.556;2023-06-14T01:43:16;20.40;71.80
51908;DHT22;39320;53.214;6.556;2023-06-14T01:45:45;20.40;72.10
51908;DHT22;39320;53.214;6.556;2023-06-14T01:48:11;20.40;72.50
51908;DHT22;39320;53.214;6.556;2023-06-14T01:50:37;20.40;72.80
51908;DHT22;39320;53.214;6.556;2023-06-14T01:53:07;20.40;72.90
51908;DHT22;39320;53.214;6.556;2023-06-14T01:55:33;20.30;73.20
51908;DHT22;39320;53.214;6.556;2023-06-14T01:58:03;20.30;73.20
51908;DHT22;39320;53.214;6.556;2023-06-14T02:00:29;20.20;73.30
51908;DHT22;39320;53.214;6.556;2023-06-14T02:02:55;20.20;73.80
51908;DHT22;39320;53.214;6.556;2023-06-14T02:05:21;20.10;73.90
51908;DHT22;39320;53.214;6.556;2023-06-14T02:07:47;20.10;74.30
51908;DHT22;39320;53.214;6.556;2023-06-14T02:10:13;20.10;74.60
51908;DHT22;39320;53.214;6.556;2023-06-14T02:12:40;20.00;74.60
51908;DHT22;39320;53.214;6.556;2023-06-14T02:15:06;20.00;74.90
51908;DHT22;39320;53.214;6.556;2023-06-14T02:17:32;20.00;75.10
51908;DHT22;39320;53.214;6.556;2023-06-14T02:19:58;20.00;75.60
51908;DHT22;39320;53.214;6.556;2023-06-14T02:22:24;20.00;75.80
51908;DHT22;39320;53.214;6.556;2023-06-14T02:24:50;19.90;76.20
51908;DHT22;39320;53.214;6.556;2023-06-14T02:27:15;19.90;76.50
51908;DHT22;39320;53.214;6.556;2023-06-14T02:29:42;19.90;76.60
51908;DHT22;39320;53.214;6.556;2023-06-14T02:32:08;19.90;76.70
51908;DHT22;39320;53.214;6.556;2023-06-14T02:34:34;19.80;77.20
51908;DHT22;39320;53.214;6.556;2023-06-14T02:37:00;19.80;77.60
51908;DHT22;39320;53.214;6.556;2023-06-14T02:39:28;19.80;78.10
51908;DHT22;39320;53.214;6.556;2023-06-14T02:41:54;19.80;78.20
51908;DHT22;39320;53.214;6.556;2023-06-14T02:44:24;19.90;78.30
51908;DHT22;39320;53.214;6.556;2023-06-14T02:46:51;19.80;78.70
51908;DHT22;39320;53.214;6.556;2023-06-14T02:49:17;19.80;78.80
51908;DHT22;39320;53.214;6.556;2023-06-14T02:51:43;19.90;79.00
51908;DHT22;39320;53.214;6.556;2023-06-14T02:54:08;19.80;79.20
51908;DHT22;39320;53.214;6.556;2023-06-14T02:56:34;19.90;79.50
51908;DHT22;39320;53.214;6.556;2023-06-14T02:59:01;19.90;79.90
51908;DHT22;39320;53.214;6.556;2023-06-14T03:01:27;19.80;79.80
51908;DHT22;39320;53.214;6.556;2023-06-14T03:04:00;19.90;80.10
51908;DHT22;39320;53.214;6.556;2023-06-14T03:06:25;19.80;80.40
51908;DHT22;39320;53.214;6.556;2023-06-14T03:08:51;19.90;80.60
51908;DHT22;39320;53.214;6.556;2023-06-14T03:11:20;19.90;80.80
51908;DHT22;39320;53.214;6.556;2023-06-14T03:13:46;19.80;81.10
51908;DHT22;39320;53.214;6.556;2023-06-14T03:16:12;19.80;81.30
51908;DHT22;39320;53.214;6.556;2023-06-14T03:18:38;19.80;81.40
51908;DHT22;39320;53.214;6.556;2023-06-14T03:21:04;19.80;81.60
51908;DHT22;39320;53.214;6.556;2023-06-14T03:23:30;19.80;81.90
51908;DHT22;39320;53.214;6.556;2023-06-14T03:25:57;19.70;82.00
51908;DHT22;39320;53.214;6.556;2023-06-14T03:28:23;19.60;82.20
51908;DHT22;39320;53.214;6.556;2023-06-14T03:30:48;19.70;82.80
51908;DHT22;39320;53.214;6.556;2023-06-14T03:33:14;19.60;83.10
51908;DHT22;39320;53.214;6.556;2023-06-14T03:35:41;19.70;83.30
51908;DHT22;39320;53.214;6.556;2023-06-14T03:38:06;19.70;83.50
51908;DHT22;39320;53.214;6.556;2023-06-14T03:40:32;19.70;83.70
51908;DHT22;39320;53.214;6.556;2023-06-14T03:42:58;19.70;83.70
51908;DHT22;39320;53.214;6.556;2023-06-14T03:45:24;19.70;84.20
51908;DHT22;39320;53.214;6.556;2023-06-14T03:47:49;19.60;84.60
51908;DHT22;39320;53.214;6.556;2023-06-14T03:50:17;19.60;84.70
51908;DHT22;39320;53.214;6.556;2023-06-14T03:52:44;19.60;85.00
51908;DHT22;39320;53.214;6.556;2023-06-14T03:55:10;19.60;85.20
51908;DHT22;39320;53.214;6.556;2023-06-14T03:57:38;19.70;85.70
51908;DHT22;39320;53.214;6.556;2023-06-14T04:00:04;19.60;85.80
51908;DHT22;39320;53.214;6.556;2023-06-14T04:02:31;19.60;86.20
51908;DHT22;39320;53.214;6.556;2023-06-14T04:04:57;19.60;86.60
51908;DHT22;39320;53.214;6.556;2023-06-14T04:07:23;19.50;87.00
51908;DHT22;39320;53.214;6.556;2023-06-14T04:09:51;19.50;87.20
51908;DHT22;39320;53.214;6.556;2023-06-14T04:12:17;19.40;87.30
51908;DHT22;39320;53.214;6.556;2023-06-14T04:14:43;19.40;87.70
51908;DHT22;39320;53.214;6.556;2023-06-14T04:17:08;19.50;88.30
51908;DHT22;39320;53.214;6.556;2023-06-14T04:19:34;19.50;88.50
51908;DHT22;39320;53.214;6.556;2023-06-14T04:22:00;19.50;88.40
51908;DHT22;39320;53.214;6.556;2023-06-14T04:24:27;19.40;88.60
51908;DHT22;39320;53.214;6.556;2023-06-14T04:26:58;19.40;89.00
51908;DHT22;39320;53.214;6.556;2023-06-14T04:29:24;19.40;89.20
51908;DHT22;39320;53.214;6.556;2023-06-14T04:31:53;19.30;89.60
51908;DHT22;39320;53.214;6.556;2023-06-14T04:34:20;19.30;90.40
51908;DHT22;39320;53.214;6.556;2023-06-14T04:36:47;19.30;90.20
51908;DHT22;39320;53.214;6.556;2023-06-14T04:39:19;19.40;90.30
51908;DHT22;39320;53.214;6.556;2023-06-14T04:41:46;19.40;90.40
51908;DHT22;39320;53.214;6.556;2023-06-14T04:44:12;19.40;90.40
51908;DHT22;39320;53.214;6.556;2023-06-14T04:46:38;19.40;90.50
51908;DHT22;39320;53.214;6.556;2023-06-14T04:49:12;19.40;90.70
51908;DHT22;39320;53.214;6.556;2023-06-14T04:51:40;19.30;90.80
51908;DHT22;39320;53.214;6.556;2023-06-14T04:54:06;19.30;91.10
51908;DHT22;39320;53.214;6.556;2023-06-14T04:56:37;19.20;91.20
51908;DHT22;39320;53.214;6.556;2023-06-14T04:59:03;19.10;91.40
51908;DHT22;39320;53.214;6.556;2023-06-14T05:01:32;19.00;91.60
51908;DHT22;39320;53.214;6.556;2023-06-14T05:03:59;19.00;91.90
51908;DHT22;39320;53.214;6.556;2023-06-14T05:06:25;19.00;92.10
51908;DHT22;39320;53.214;6.556;2023-06-14T05:08:53;19.00;92.20
51908;DHT22;39320;53.214;6.556;2023-06-14T05:11:19;19.00;92.40
51908;DHT22;39320;53.214;6.556;2023-06-14T05:13:45;18.90;92.60
51908;DHT22;39320;53.214;6.556;2023-06-14T05:16:12;18.90;92.80
51908;DHT22;39320;53.214;6.556;2023-06-14T05:18:38;19.00;93.00
51908;DHT22;39320;53.214;6.556;2023-06-14T05:21:05;19.10;93.10
51908;DHT22;39320;53.214;6.556;2023-06-14T05:23:31;19.00;93.30
51908;DHT22;39320;53.214;6.556;2023-06-14T05:25:57;19.10;93.40
51908;DHT22;39320;53.214;6.556;2023-06-14T05:28:23;19.10;93.40
51908;DHT22;39320;53.214;6.556;2023-06-14T05:30:49;19.00;93.50
51908;DHT22;39320;53.214;6.556;2023-06-14T05:33:15;19.10;93.60
51908;DHT22;39320;53.214;6.556;2023-06-14T05:35:41;19.10;93.60
51908;DHT22;39320;53.214;6.556;2023-06-14T05:38:07;19.10;93.60
51908;DHT22;39320;53.214;6.556;2023-06-14T05:40:33;19.20;93.60
51908;DHT22;39320;53.214;6.556;2023-06-14T05:42:59;19.30;93.50
51908;DHT22;39320;53.214;6.556;2023-06-14T05:45:28;19.30;93.50
51908;DHT22;39320;53.214;6.556;2023-06-14T05:47:53;19.30;93.50
51908;DHT22;39320;53.214;6.556;2023-06-14T05:50:20;19.30;93.50
51908;DHT22;39320;53.214;6.556;2023-06-14T05:52:46;19.30;93.50
51908;DHT22;39320;53.214;6.556;2023-06-14T05:55:12;19.20;93.50
51908;DHT22;39320;53.214;6.556;2023-06-14T05:57:38;19.20;93.50
51908;DHT22;39320;53.214;6.556;2023-06-14T06:00:05;19.10;93.60
51908;DHT22;39320;53.214;6.556;2023-06-14T06:02:40;19.20;93.80
51908;DHT22;39320;53.214;6.556;2023-06-14T06:05:06;19.20;93.70
51908;DHT22;39320;53.214;6.556;2023-06-14T06:07:32;19.20;93.90
51908;DHT22;39320;53.214;6.556;2023-06-14T06:09:58;19.20;94.00
51908;DHT22;39320;53.214;6.556;2023-06-14T06:12:23;19.20;94.30
51908;DHT22;39320;53.214;6.556;2023-06-14T06:14:49;19.20;94.50
51908;DHT22;39320;53.214;6.556;2023-06-14T06:17:15;19.30;94.50
51908;DHT22;39320;53.214;6.556;2023-06-14T06:19:40;19.40;94.40
51908;DHT22;39320;53.214;6.556;2023-06-14T06:22:06;19.40;94.30
51908;DHT22;39320;53.214;6.556;2023-06-14T06:24:33;19.40;94.10
51908;DHT22;39320;53.214;6.556;2023-06-14T06:26:59;19.50;94.20
51908;DHT22;39320;53.214;6.556;2023-06-14T06:29:26;19.50;94.20
51908;DHT22;39320;53.214;6.556;2023-06-14T06:31:51;19.50;94.10
51908;DHT22;39320;53.214;6.556;2023-06-14T06:34:17;19.50;94.10
51908;DHT22;39320;53.214;6.556;2023-06-14T06:36:43;19.60;94.20
51908;DHT22;39320;53.214;6.556;2023-06-14T06:39:08;19.60;94.10
51908;DHT22;39320;53.214;6.556;2023-06-14T06:41:38;19.50;94.20
51908;DHT22;39320;53.214;6.556;2023-06-14T06:44:05;19.50;94.60
51908;DHT22;39320;53.214;6.556;2023-06-14T06:46:32;19.60;94.40
51908;DHT22;39320;53.214;6.556;2023-06-14T06:48:59;19.70;94.30
51908;DHT22;39320;53.214;6.556;2023-06-14T06:51:24;19.70;94.20
51908;DHT22;39320;53.214;6.556;2023-06-14T06:53:54;19.80;94.10
51908;DHT22;39320;53.214;6.556;2023-06-14T06:56:20;19.80;93.90
51908;DHT22;39320;53.214;6.556;2023-06-14T06:58:50;19.80;93.80
51908;DHT22;39320;53.214;6.556;2023-06-14T07:01:16;19.90;93.80
51908;DHT22;39320;53.214;6.556;2023-06-14T07:03:42;20.00;93.70
51908;DHT22;39320;53.214;6.556;2023-06-14T07:06:08;20.10;93.50
51908;DHT22;39320;53.214;6.556;2023-06-14T07:08:34;20.20;93.40
51908;DHT22;39320;53.214;6.556;2023-06-14T07:11:00;20.30;93.20
51908;DHT22;39320;53.214;6.556;2023-06-14T07:13:25;20.30;92.80
51908;DHT22;39320;53.214;6.556;2023-06-14T07:15:54;20.40;92.80
51908;DHT22;39320;53.214;6.556;2023-06-14T07:18:22;20.40;92.40
51908;DHT22;39320;53.214;6.556;2023-06-14T07:20:48;20.50;92.40
51908;DHT22;39320;53.214;6.556;2023-06-14T07:23:14;20.60;92.00
51908;DHT22;39320;53.214;6.556;2023-06-14T07:25:39;20.70;91.70
51908;DHT22;39320;53.214;6.556;2023-06-14T07:28:05;20.70;91.40
51908;DHT22;39320;53.214;6.556;2023-06-14T07:30:31;20.70;91.10
51908;DHT22;39320;53.214;6.556;2023-06-14T07:32:56;20.70;91.40
51908;DHT22;39320;53.214;6.556;2023-06-14T07:35:22;20.80;91.30
51908;DHT22;39320;53.214;6.556;2023-06-14T07:37:48;20.90;91.30
51908;DHT22;39320;53.214;6.556;2023-06-14T07:40:16;21.00;91.00
51908;DHT22;39320;53.214;6.556;2023-06-14T07:42:42;21.00;90.40
51908;DHT22;39320;53.214;6.556;2023-06-14T07:45:08;21.00;90.10
51908;DHT22;39320;53.214;6.556;2023-06-14T07:47:33;21.00;90.30
51908;DHT22;39320;53.214;6.556;2023-06-14T07:49:59;21.10;90.20
51908;DHT22;39320;53.214;6.556;2023-06-14T07:52:25;21.20;90.10
51908;DHT22;39320;53.214;6.556;2023-06-14T07:54:51;21.10;89.40
51908;DHT22;39320;53.214;6.556;2023-06-14T07:57:16;21.10;89.60
51908;DHT22;39320;53.214;6.556;2023-06-14T07:59:42;21.20;89.10
51908;DHT22;39320;53.214;6.556;2023-06-14T08:02:08;21.10;88.20
51908;DHT22;39320;53.214;6.556;2023-06-14T08:04:34;21.10;87.70
51908;DHT22;39320;53.214;6.556;2023-06-14T08:07:00;21.10;87.90
51908;DHT22;39320;53.214;6.556;2023-06-14T08:09:26;21.20;88.30
51908;DHT22;39320;53.214;6.556;2023-06-14T08:11:54;21.20;87.80
51908;DHT22;39320;53.214;6.556;2023-06-14T08:14:20;21.20;87.60
51908;DHT22;39320;53.214;6.556;2023-06-14T08:16:45;21.20;87.30
51908;DHT22;39320;53.214;6.556;2023-06-14T08:19:11;21.30;88.00
51908;DHT22;39320;53.214;6.556;2023-06-14T08:21:37;21.40;88.00
51908;DHT22;39320;53.214;6.556;2023-06-14T08:24:03;21.30;87.50
51908;DHT22;39320;53.214;6.556;2023-06-14T08:26:29;21.30;87.00
51908;DHT22;39320;53.214;6.556;2023-06-14T08:28:55;21.30;87.00
51908;DHT22;39320;53.214;6.556;2023-06-14T08:31:22;21.30;86.80
51908;DHT22;39320;53.214;6.556;2023-06-14T08:33:48;21.30;86.30
51908;DHT22;39320;53.214;6.556;2023-06-14T08:36:14;21.30;85.90
51908;DHT22;39320;53.214;6.556;2023-06-14T08:38:39;21.40;85.60
51908;DHT22;39320;53.214;6.556;2023-06-14T08:41:06;21.40;85.00
51908;DHT22;39320;53.214;6.556;2023-06-14T08:43:32;21.40;84.40
51908;DHT22;39320;53.214;6.556;2023-06-14T08:46:00;21.40;84.10
51908;DHT22;39320;53.214;6.556;2023-06-14T08:48:28;21.50;84.50
51908;DHT22;39320;53.214;6.556;2023-06-14T08:50:56;21.50;84.70
51908;DHT22;39320;53.214;6.556;2023-06-14T08:53:29;21.50;84.80
51908;DHT22;39320;53.214;6.556;2023-06-14T08:56:01;21.60;83.90
51908;DHT22;39320;53.214;6.556;2023-06-14T08:58:31;21.60;83.10
51908;DHT22;39320;53.214;6.556;2023-06-14T09:01:01;21.50;82.50
51908;DHT22;39320;53.214;6.556;2023-06-14T09:03:26;21.60;82.20
51908;DHT22;39320;53.214;6.556;2023-06-14T09:05:56;21.60;82.30
51908;DHT22;39320;53.214;6.556;2023-06-14T09:08:25;21.60;83.30
51908;DHT22;39320;53.214;6.556;2023-06-14T09:10:51;21.50;83.20
51908;DHT22;39320;53.214;6.556;2023-06-14T09:13:17;21.50;83.80
51908;DHT22;39320;53.214;6.556;2023-06-14T09:15:43;21.60;84.10
51908;DHT22;39320;53.214;6.556;2023-06-14T09:18:09;21.60;84.30
51908;DHT22;39320;53.214;6.556;2023-06-14T09:20:35;21.70;84.00
51908;DHT22;39320;53.214;6.556;2023-06-14T09:23:01;21.70;83.90
51908;DHT22;39320;53.214;6.556;2023-06-14T09:25:28;21.70;83.80
51908;DHT22;39320;53.214;6.556;2023-06-14T09:27:56;21.70;83.60
51908;DHT22;39320;53.214;6.556;2023-06-14T09:30:22;21.80;83.50
51908;DHT22;39320;53.214;6.556;2023-06-14T09:32:48;21.80;83.50
51908;DHT22;39320;53.214;6.556;2023-06-14T09:35:17;21.80;83.00
51908;DHT22;39320;53.214;6.556;2023-06-14T09:37:43;21.80;81.30
51908;DHT22;39320;53.214;6.556;2023-06-14T09:40:10;21.80;81.90
51908;DHT22;39320;53.214;6.556;2023-06-14T09:42:37;21.90;81.70
51908;DHT22;39320;53.214;6.556;2023-06-14T09:45:03;21.80;82.20
51908;DHT22;39320;53.214;6.556;2023-06-14T09:47:30;21.90;82.60
51908;DHT22;39320;53.214;6.556;2023-06-14T09:49:57;21.80;82.40
51908;DHT22;39320;53.214;6.556;2023-06-14T09:52:24;21.80;81.90
51908;DHT22;39320;53.214;6.556;2023-06-14T09:54:52;21.90;81.50
51908;DHT22;39320;53.214;6.556;2023-06-14T09:57:23;21.80;81.20
51908;DHT22;39320;53.214;6.556;2023-06-14T09:59:56;21.80;81.10
51908;DHT22;39320;53.214;6.556;2023-06-14T10:02:31;21.90;81.50
51908;DHT22;39320;53.214;6.556;2023-06-14T10:05:03;21.90;81.10
51908;DHT22;39320;53.214;6.556;2023-06-14T10:07:35;21.90;80.50
51908;DHT22;39320;53.214;6.556;2023-06-14T10:10:05;21.90;80.30
51908;DHT22;39320;53.214;6.556;2023-06-14T10:12:31;21.90;80.30
51908;DHT22;39320;53.214;6.556;2023-06-14T10:14:57;22.00;80.40
51908;DHT22;39320;53.214;6.556;2023-06-14T10:20:30;22.00;79.20
51908;DHT22;39320;53.214;6.556;2023-06-14T10:23:03;22.00;79.30
51908;DHT22;39320;53.214;6.556;2023-06-14T10:25:31;22.00;79.70
51908;DHT22;39320;53.214;6.556;2023-06-14T10:28:23;22.00;79.70
51908;DHT22;39320;53.214;6.556;2023-06-14T10:31:11;22.10;79.20
51908;DHT22;39320;53.214;6.556;2023-06-14T10:33:57;22.10;78.60
51908;DHT22;39320;53.214;6.556;2023-06-14T10:36:33;22.10;78.90
51908;DHT22;39320;53.214;6.556;2023-06-14T10:39:21;22.20;78.60
51908;DHT22;39320;53.214;6.556;2023-06-14T10:41:52;22.20;78.60
51908;DHT22;39320;53.214;6.556;2023-06-14T10:47:10;22.30;78.20
51908;DHT22;39320;53.214;6.556;2023-06-14T10:49:41;22.30;78.20
51908;DHT22;39320;53.214;6.556;2023-06-14T10:52:12;22.40;78.30
51908;DHT22;39320;53.214;6.556;2023-06-14T10:57:45;22.30;77.70
51908;DHT22;39320;53.214;6.556;2023-06-14T11:00:12;22.40;77.70
51908;DHT22;39320;53.214;6.556;2023-06-14T11:05:29;22.50;76.80
51908;DHT22;39320;53.214;6.556;2023-06-14T11:10:51;22.60;75.80
51908;DHT22;39320;53.214;6.556;2023-06-14T11:13:19;22.50;75.80
51908;DHT22;39320;53.214;6.556;2023-06-14T11:15:47;22.60;75.90
51908;DHT22;39320;53.214;6.556;2023-06-14T11:18:13;22.60;75.60
51908;DHT22;39320;53.214;6.556;2023-06-14T11:20:39;22.70;75.20
51908;DHT22;39320;53.214;6.556;2023-06-14T11:23:05;22.70;75.30
51908;DHT22;39320;53.214;6.556;2023-06-14T11:25:31;22.80;74.80
51908;DHT22;39320;53.214;6.556;2023-06-14T11:27:58;22.80;75.30
51908;DHT22;39320;53.214;6.556;2023-06-14T11:30:26;22.90;74.40
51908;DHT22;39320;53.214;6.556;2023-06-14T11:32:53;22.90;74.40
51908;DHT22;39320;53.214;6.556;2023-06-14T11:35:22;23.00;74.00
51908;DHT22;39320;53.214;6.556;2023-06-14T11:37:49;23.00;73.20
51908;DHT22;39320;53.214;6.556;2023-06-14T11:40:17;23.00;73.10
51908;DHT22;39320;53.214;6.556;2023-06-14T11:42:43;23.10;73.10
51908;DHT22;39320;53.214;6.556;2023-06-14T11:45:10;23.10;73.20
51908;DHT22;39320;53.214;6.556;2023-06-14T11:47:38;23.10;73.00
51908;DHT22;39320;53.214;6.556;2023-06-14T11:50:06;23.20;72.50
51908;DHT22;39320;53.214;6.556;2023-06-14T11:52:33;23.20;72.20
51908;DHT22;39320;53.214;6.556;2023-06-14T11:54:59;23.20;71.50
51908;DHT22;39320;53.214;6.556;2023-06-14T11:57:25;23.30;72.00
51908;DHT22;39320;53.214;6.556;2023-06-14T11:59:51;23.30;70.60
51908;DHT22;39320;53.214;6.556;2023-06-14T12:02:19;23.40;70.30
51908;DHT22;39320;53.214;6.556;2023-06-14T12:04:47;23.40;69.40
51908;DHT22;39320;53.214;6.556;2023-06-14T12:07:17;23.40;68.90
51908;DHT22;39320;53.214;6.556;2023-06-14T12:12:23;23.40;68.90
51908;DHT22;39320;53.214;6.556;2023-06-14T12:14:53;23.50;68.60
51908;DHT22;39320;53.214;6.556;2023-06-14T12:17:19;23.50;69.20
51908;DHT22;39320;53.214;6.556;2023-06-14T12:19:46;23.50;68.90
51908;DHT22;39320;53.214;6.556;2023-06-14T12:22:13;23.50;68.40
51908;DHT22;39320;53.214;6.556;2023-06-14T12:24:42;23.50;68.20
51908;DHT22;39320;53.214;6.556;2023-06-14T12:27:08;23.50;68.10
51908;DHT22;39320;53.214;6.556;2023-06-14T12:29:34;23.60;67.90
51908;DHT22;39320;53.214;6.556;2023-06-14T12:32:00;23.60;67.60
51908;DHT22;39320;53.214;6.556;2023-06-14T12:34:26;23.70;67.40
51908;DHT22;39320;53.214;6.556;2023-06-14T12:36:53;23.70;67.70
51908;DHT22;39320;53.214;6.556;2023-06-14T12:39:20;23.70;67.80
51908;DHT22;39320;53.214;6.556;2023-06-14T12:41:46;23.70;67.80
51908;DHT22;39320;53.214;6.556;2023-06-14T12:44:12;23.80;68.00
51908;DHT22;39320;53.214;6.556;2023-06-14T12:46:39;23.90;68.30
51908;DHT22;39320;53.214;6.556;2023-06-14T12:49:07;23.90;68.00
51908;DHT22;39320;53.214;6.556;2023-06-14T12:51:33;23.90;67.80
51908;DHT22;39320;53.214;6.556;2023-06-14T12:53:58;23.90;67.70
51908;DHT22;39320;53.214;6.556;2023-06-14T12:56:24;23.80;67.80
51908;DHT22;39320;53.214;6.556;2023-06-14T12:58:50;23.90;67.40
51908;DHT22;39320;53.214;6.556;2023-06-14T13:01:16;23.90;67.60
51908;DHT22;39320;53.214;6.556;2023-06-14T13:03:41;24.00;66.40
51908;DHT22;39320;53.214;6.556;2023-06-14T13:06:07;24.00;66.00
51908;DHT22;39320;53.214;6.556;2023-06-14T13:08:33;23.90;66.10
51908;DHT22;39320;53.214;6.556;2023-06-14T13:10:58;23.90;65.60
51908;DHT22;39320;53.214;6.556;2023-06-14T13:13:24;23.90;64.90
51908;DHT22;39320;53.214;6.556;2023-06-14T13:15:50;24.10;65.20
51908;DHT22;39320;53.214;6.556;2023-06-14T13:18:16;24.10;65.70
51908;DHT22;39320;53.214;6.556;2023-06-14T13:20:42;24.20;65.80
51908;DHT22;39320;53.214;6.556;2023-06-14T13:23:09;24.40;66.20
51908;DHT22;39320;53.214;6.556;2023-06-14T13:25:37;24.40;65.50
51908;DHT22;39320;53.214;6.556;2023-06-14T13:28:04;24.50;65.00
51908;DHT22;39320;53.214;6.556;2023-06-14T13:30:30;24.60;64.80
51908;DHT22;39320;53.214;6.556;2023-06-14T13:32:56;24.60;64.10
51908;DHT22;39320;53.214;6.556;2023-06-14T13:35:23;24.70;64.10
51908;DHT22;39320;53.214;6.556;2023-06-14T13:37:49;24.70;64.20
51908;DHT22;39320;53.214;6.556;2023-06-14T13:40:15;24.80;64.20
51908;DHT22;39320;53.214;6.556;2023-06-14T13:42:41;24.90;64.20
51908;DHT22;39320;53.214;6.556;2023-06-14T13:45:07;24.90;64.20
51908;DHT22;39320;53.214;6.556;2023-06-14T13:47:33;24.90;64.50
51908;DHT22;39320;53.214;6.556;2023-06-14T13:49:59;24.90;64.30
51908;DHT22;39320;53.214;6.556;2023-06-14T13:52:25;24.90;64.00
51908;DHT22;39320;53.214;6.556;2023-06-14T13:54:51;25.00;63.60
51908;DHT22;39320;53.214;6.556;2023-06-14T13:57:17;25.00;63.10
51908;DHT22;39320;53.214;6.556;2023-06-14T13:59:43;25.00;63.60
51908;DHT22;39320;53.214;6.556;2023-06-14T14:02:10;25.00;62.60
51908;DHT22;39320;53.214;6.556;2023-06-14T14:04:38;25.10;62.80
51908;DHT22;39320;53.214;6.556;2023-06-14T14:07:05;25.10;62.70
51908;DHT22;39320;53.214;6.556;2023-06-14T14:09:32;25.10;62.30
51908;DHT22;39320;53.214;6.556;2023-06-14T14:12:01;25.20;62.60
51908;DHT22;39320;53.214;6.556;2023-06-14T14:14:31;25.20;61.90
51908;DHT22;39320;53.214;6.556;2023-06-14T14:16:58;25.30;62.80
51908;DHT22;39320;53.214;6.556;2023-06-14T14:19:24;25.30;61.90
51908;DHT22;39320;53.214;6.556;2023-06-14T14:21:50;25.20;61.90
51908;DHT22;39320;53.214;6.556;2023-06-14T14:24:15;25.10;61.90
51908;DHT22;39320;53.214;6.556;2023-06-14T14:26:42;24.90;62.80
51908;DHT22;39320;53.214;6.556;2023-06-14T14:29:08;25.00;61.70
51908;DHT22;39320;53.214;6.556;2023-06-14T14:31:37;25.10;61.30
51908;DHT22;39320;53.214;6.556;2023-06-14T14:34:02;25.10;60.90
51908;DHT22;39320;53.214;6.556;2023-06-14T14:36:28;25.20;61.20
51908;DHT22;39320;53.214;6.556;2023-06-14T14:38:54;25.40;61.70
51908;DHT22;39320;53.214;6.556;2023-06-14T14:41:20;25.50;61.30
51908;DHT22;39320;53.214;6.556;2023-06-14T14:43:46;25.60;61.10
51908;DHT22;39320;53.214;6.556;2023-06-14T14:46:11;25.70;61.20
51908;DHT22;39320;53.214;6.556;2023-06-14T14:48:37;25.60;60.00
51908;DHT22;39320;53.214;6.556;2023-06-14T14:51:03;25.50;60.00
51908;DHT22;39320;53.214;6.556;2023-06-14T14:53:28;25.50;60.20
51908;DHT22;39320;53.214;6.556;2023-06-14T14:55:54;25.60;60.10
51908;DHT22;39320;53.214;6.556;2023-06-14T14:58:20;25.70;60.00
51908;DHT22;39320;53.214;6.556;2023-06-14T15:00:47;25.70;59.60
51908;DHT22;39320;53.214;6.556;2023-06-14T15:03:14;25.80;59.70
51908;DHT22;39320;53.214;6.556;2023-06-14T15:05:40;25.90;59.30
51908;DHT22;39320;53.214;6.556;2023-06-14T15:08:06;25.90;59.00
51908;DHT22;39320;53.214;6.556;2023-06-14T15:10:38;25.90;59.30
51908;DHT22;39320;53.214;6.556;2023-06-14T15:13:08;26.00;59.20
51908;DHT22;39320;53.214;6.556;2023-06-14T15:15:35;26.10;58.90
51908;DHT22;39320;53.214;6.556;2023-06-14T15:18:01;26.10;58.70
51908;DHT22;39320;53.214;6.556;2023-06-14T15:20:27;26.10;58.90
51908;DHT22;39320;53.214;6.556;2023-06-14T15:22:53;26.00;59.10
51908;DHT22;39320;53.214;6.556;2023-06-14T15:25:27;25.90;59.30
51908;DHT22;39320;53.214;6.556;2023-06-14T15:27:54;25.80;59.40
51908;DHT22;39320;53.214;6.556;2023-06-14T15:30:20;25.90;59.90
51908;DHT22;39320;53.214;6.556;2023-06-14T15:32:46;25.80;59.60
51908;DHT22;39320;53.214;6.556;2023-06-14T15:35:12;25.80;59.40
51908;DHT22;39320;53.214;6.556;2023-06-14T15:37:38;25.70;59.10
51908;DHT22;39320;53.214;6.556;2023-06-14T15:40:05;25.60;59.00
51908;DHT22;39320;53.214;6.556;2023-06-14T15:42:31;25.50;58.90
51908;DHT22;39320;53.214;6.556;2023-06-14T15:44:56;25.40;59.00
51908;DHT22;39320;53.214;6.556;2023-06-14T15:47:22;25.30;59.20
51908;DHT22;39320;53.214;6.556;2023-06-14T15:49:48;25.40;59.60